Time,TemperatureF,DewpointF,PressureIn,WindDirection,WindDirectionDegrees,WindSpeedMPH,WindSpeedGustMPH,Humidity,HourlyPrecipIn,Conditions,Clouds,dailyrainin,SoftwareType,DateUTC
2013-02-27 00:02:00,35.0,28.0,30.04,East,85,2.0,7.0,75,0.00,,,0.04,,2013-02-27 05:02:00,
2013-02-27 00:12:00,35.0,28.0,30.04,East,85,2.0,7.0,75,0.00,,,0.04,,2013-02-27 05:12:00,
2013-02-27 00:22:00,34.0,27.0,30.05,ESE,120,2.0,9.0,75,0.00,,,0.04,,2013-02-27 05:22:00,
2013-02-27 00:32:00,34.0,27.0,30.05,SE,132,1.0,8.0,76,0.00,,,0.04,,2013-02-27 05:32:00,
2013-02-27 00:42:00,34.0,27.0,30.05,SE,132,1.0,8.0,76,0.00,,,0.04,,2013-02-27 05:42:00,
2013-02-27 00:52:00,34.0,28.0,30.04,South,172,2.0,7.0,77,0.00,,,0.04,,2013-02-27 05:52:00,
2013-02-27 01:02:00,33.0,28.0,30.05,ENE,64,2.0,6.0,83,0.00,,,0.04,,2013-02-27 06:02:00,
2013-02-27 01:11:00,33.0,28.0,30.05,ENE,64,2.0,6.0,83,0.00,,,0.04,,2013-02-27 06:11:00,
2013-02-27 01:22:00,32.0,29.0,30.06,East,86,1.0,4.0,88,0.00,,,0.04,,2013-02-27 06:22:00,
2013-02-27 01:33:00,32.0,30.0,30.06,SE,131,0.0,2.0,91,0.00,,,0.04,,2013-02-27 06:33:00,
2013-02-27 01:42:00,32.0,30.0,30.06,SE,131,0.0,2.0,91,0.00,,,0.04,,2013-02-27 06:42:00,
2013-02-27 01:52:00,31.0,29.0,30.03,North,11,0.0,2.0,92,0.00,,,0.04,,2013-02-27 06:52:00,
2013-02-27 02:01:00,31.0,29.0,30.05,East,79,0.0,3.0,93,0.00,,,0.04,,2013-02-27 07:01:00,
2013-02-27 02:12:00,31.0,29.0,30.05,East,79,0.0,3.0,93,0.00,,,0.04,,2013-02-27 07:12:00,
2013-02-27 02:21:00,31.0,29.0,30.03,NW,313,1.0,4.0,93,0.00,,,0.04,,2013-02-27 07:21:00,
2013-02-27 02:32:00,31.0,29.0,30.03,SE,129,1.0,4.0,93,0.00,,,0.04,,2013-02-27 07:32:00,
2013-02-27 02:42:00,31.0,29.0,30.03,SE,129,1.0,4.0,93,0.00,,,0.04,,2013-02-27 07:42:00,
2013-02-27 02:52:00,31.0,29.0,30.03,SE,129,1.0,4.0,93,0.00,,,0.04,,2013-02-27 07:52:00,
2013-02-27 03:01:00,30.0,28.0,30.01,East,96,3.0,7.0,94,0.00,,,0.04,,2013-02-27 08:01:00,
2013-02-27 03:11:00,30.0,28.0,30.01,East,96,3.0,7.0,94,0.00,,,0.04,,2013-02-27 08:11:00,
2013-02-27 03:22:00,30.0,28.0,29.98,ENE,70,1.0,7.0,94,0.00,,,0.04,,2013-02-27 08:22:00,
2013-02-27 03:32:00,30.0,28.0,29.96,ESE,105,2.0,5.0,94,0.00,,,0.04,,2013-02-27 08:32:00,
2013-02-27 03:42:00,30.0,28.0,29.96,ESE,105,2.0,5.0,94,0.00,,,0.04,,2013-02-27 08:42:00,
2013-02-27 03:53:00,30.0,28.0,29.96,ENE,66,4.0,8.0,94,0.00,,,0.04,,2013-02-27 08:53:00,
2013-02-27 04:02:00,30.0,28.0,29.94,ESE,108,3.0,8.0,93,0.00,,,0.04,,2013-02-27 09:02:00,
2013-02-27 04:12:00,30.0,28.0,29.94,ESE,108,3.0,8.0,93,0.00,,,0.04,,2013-02-27 09:12:00,
2013-02-27 04:22:00,30.0,28.0,29.92,West,274,0.0,3.0,92,0.00,,,0.04,,2013-02-27 09:22:00,
2013-02-27 04:32:00,31.0,29.0,29.91,NNE,25,1.0,4.0,92,0.00,,,0.04,,2013-02-27 09:32:00,
2013-02-27 04:42:00,31.0,29.0,29.91,NNE,25,1.0,4.0,92,0.00,,,0.04,,2013-02-27 09:42:00,
2013-02-27 04:52:00,31.0,29.0,29.90,ESE,105,0.0,5.0,91,0.00,,,0.04,,2013-02-27 09:52:00,
2013-02-27 05:01:00,31.0,28.0,29.90,ENE,59,1.0,9.0,90,0.00,,,0.04,,2013-02-27 10:01:00,
2013-02-27 05:12:00,31.0,28.0,29.90,ENE,59,1.0,9.0,90,0.00,,,0.04,,2013-02-27 10:12:00,
2013-02-27 05:22:00,32.0,29.0,29.89,WNW,302,2.0,9.0,89,0.00,,,0.04,,2013-02-27 10:22:00,
2013-02-27 05:32:00,32.0,29.0,29.88,East,82,1.0,9.0,89,0.00,,,0.04,,2013-02-27 10:32:00,
2013-02-27 05:42:00,32.0,29.0,29.88,East,82,1.0,9.0,89,0.00,,,0.04,,2013-02-27 10:42:00,
2013-02-27 05:53:00,32.0,29.0,29.87,SE,129,2.0,8.0,89,0.00,,,0.04,,2013-02-27 10:53:00,
2013-02-27 06:02:00,33.0,30.0,29.86,NNW,346,2.0,10.0,88,0.00,,,0.04,,2013-02-27 11:02:00,
2013-02-27 06:12:00,33.0,30.0,29.86,NNW,346,2.0,10.0,88,0.00,,,0.04,,2013-02-27 11:12:00,
2013-02-27 06:22:00,33.0,30.0,29.86,ESE,102,2.0,10.0,88,0.00,,,0.04,,2013-02-27 11:22:00,
2013-02-27 06:32:00,33.0,30.0,29.85,NW,312,4.0,9.0,88,0.00,,,0.04,,2013-02-27 11:32:00,
2013-02-27 06:42:00,33.0,30.0,29.85,NW,312,4.0,9.0,88,0.00,,,0.04,,2013-02-27 11:42:00,
2013-02-27 06:52:00,33.0,30.0,29.83,ENE,60,0.0,9.0,88,0.00,,,0.04,,2013-02-27 11:52:00,
2013-02-27 07:02:00,34.0,31.0,29.82,ESE,108,0.0,0.0,88,0.00,,,0.04,,2013-02-27 12:02:00,
2013-02-27 07:13:00,34.0,31.0,29.82,ESE,108,0.0,0.0,88,0.00,,,0.04,,2013-02-27 12:13:00,
2013-02-27 07:22:00,34.0,31.0,29.82,ESE,114,3.0,8.0,88,0.00,,,0.04,,2013-02-27 12:22:00,
2013-02-27 07:33:00,34.0,31.0,29.81,North,350,2.0,7.0,87,0.00,,,0.04,,2013-02-27 12:33:00,
2013-02-27 07:42:00,34.0,31.0,29.81,North,350,2.0,7.0,87,0.00,,,0.04,,2013-02-27 12:42:00,
2013-02-27 07:53:00,35.0,31.0,29.80,WNW,294,2.0,7.0,86,0.00,,,0.04,,2013-02-27 12:53:00,
2013-02-27 08:02:00,35.0,31.0,29.80,West,259,3.0,10.0,86,0.00,,,0.04,,2013-02-27 13:02:00,
2013-02-27 08:12:00,35.0,31.0,29.80,West,259,3.0,10.0,86,0.00,,,0.04,,2013-02-27 13:12:00,
2013-02-27 08:22:00,35.0,31.0,29.80,NW,316,3.0,11.0,86,0.00,,,0.04,,2013-02-27 13:22:00,
2013-02-27 08:32:00,35.0,32.0,29.79,NW,316,3.0,9.0,87,0.00,,,0.04,,2013-02-27 13:32:00,
2013-02-27 08:42:00,35.0,32.0,29.79,NW,316,3.0,9.0,87,0.00,,,0.04,,2013-02-27 13:42:00,
2013-02-27 08:52:00,35.0,32.0,29.78,NW,325,1.0,11.0,87,0.00,,,0.04,,2013-02-27 13:52:00,
2013-02-27 09:02:00,36.0,33.0,29.77,NW,304,1.0,10.0,87,0.00,,,0.04,,2013-02-27 14:02:00,
2013-02-27 09:12:00,36.0,33.0,29.77,NW,304,1.0,10.0,87,0.00,,,0.04,,2013-02-27 14:12:00,
2013-02-27 09:22:00,36.0,33.0,29.77,East,80,1.0,8.0,87,0.00,,,0.04,,2013-02-27 14:22:00,
2013-02-27 09:32:00,37.0,33.0,29.76,NW,319,3.0,14.0,86,0.00,,,0.04,,2013-02-27 14:32:00,
2013-02-27 09:42:00,37.0,33.0,29.76,NW,319,3.0,14.0,86,0.00,,,0.04,,2013-02-27 14:42:00,
2013-02-27 09:53:00,37.0,33.0,29.74,NW,312,4.0,14.0,86,0.00,,,0.04,,2013-02-27 14:53:00,
2013-02-27 10:02:00,37.0,33.0,29.74,NW,304,4.0,10.0,86,0.00,,,0.04,,2013-02-27 15:02:00,
2013-02-27 10:12:00,37.0,33.0,29.74,NW,304,4.0,10.0,86,0.00,,,0.04,,2013-02-27 15:12:00,
2013-02-27 10:22:00,37.0,33.0,29.74,East,101,2.0,11.0,86,0.01,,,0.05,,2013-02-27 15:22:00,
2013-02-27 10:32:00,38.0,34.0,29.73,NNE,15,3.0,9.0,86,0.06,,,0.10,,2013-02-27 15:32:00,
2013-02-27 10:42:00,38.0,34.0,29.73,NNE,15,3.0,9.0,86,0.06,,,0.10,,2013-02-27 15:42:00,
2013-02-27 10:52:00,38.0,34.0,29.73,ESE,105,4.0,10.0,86,0.11,,,0.15,,2013-02-27 15:52:00,
2013-02-27 11:02:00,38.0,34.0,29.72,NNW,333,2.0,10.0,87,0.15,,,0.19,,2013-02-27 16:02:00,
2013-02-27 11:12:00,38.0,34.0,29.72,NNW,333,2.0,10.0,87,0.15,,,0.19,,2013-02-27 16:12:00,
2013-02-27 11:22:00,38.0,34.0,29.71,ENE,71,4.0,9.0,87,0.17,,,0.21,,2013-02-27 16:22:00,
2013-02-27 11:32:00,38.0,34.0,29.70,NNE,30,2.0,12.0,87,0.15,,,0.24,,2013-02-27 16:32:00,
2013-02-27 11:42:00,38.0,34.0,29.70,NNE,30,2.0,12.0,87,0.15,,,0.24,,2013-02-27 16:42:00,
2013-02-27 11:52:00,38.0,34.0,29.70,NNW,348,4.0,13.0,86,0.13,,,0.27,,2013-02-27 16:52:00,
2013-02-27 12:02:00,38.0,34.0,29.69,NW,319,2.0,11.0,86,0.11,,,0.28,,2013-02-27 17:02:00,
2013-02-27 12:11:00,38.0,34.0,29.69,NW,319,2.0,11.0,86,0.11,,,0.28,,2013-02-27 17:11:00,
2013-02-27 12:21:00,38.0,34.0,29.69,ENE,73,2.0,8.0,86,0.10,,,0.28,,2013-02-27 17:21:00,
2013-02-27 12:32:00,38.0,34.0,29.68,East,96,3.0,12.0,87,0.09,,,0.30,,2013-02-27 17:32:00,
2013-02-27 12:42:00,38.0,34.0,29.68,East,96,3.0,12.0,87,0.09,,,0.30,,2013-02-27 17:42:00,
2013-02-27 12:52:00,38.0,35.0,29.67,SE,132,2.0,5.0,88,0.08,,,0.32,,2013-02-27 17:52:00,
2013-02-27 13:02:00,38.0,35.0,29.67,SE,127,2.0,5.0,88,0.07,,,0.33,,2013-02-27 18:02:00,
2013-02-27 13:11:00,38.0,35.0,29.67,SE,127,2.0,5.0,88,0.07,,,0.33,,2013-02-27 18:11:00,
2013-02-27 13:22:00,38.0,35.0,29.66,ENE,73,4.0,13.0,88,0.07,,,0.35,,2013-02-27 18:22:00,
2013-02-27 13:32:00,38.0,35.0,29.65,East,96,2.0,7.0,89,0.06,,,0.36,,2013-02-27 18:32:00,
2013-02-27 13:42:00,38.0,35.0,29.65,East,96,2.0,7.0,89,0.06,,,0.36,,2013-02-27 18:42:00,
2013-02-27 13:52:00,38.0,35.0,29.64,SE,128,2.0,13.0,89,0.06,,,0.38,,2013-02-27 18:52:00,
2013-02-27 14:01:00,37.0,34.0,29.64,NW,304,2.0,10.0,90,0.06,,,0.39,,2013-02-27 19:01:00,
2013-02-27 14:12:00,37.0,34.0,29.64,NW,304,2.0,10.0,90,0.06,,,0.39,,2013-02-27 19:12:00,
2013-02-27 14:22:00,37.0,34.0,29.63,NNW,341,1.0,5.0,90,0.04,,,0.39,,2013-02-27 19:22:00,
2013-02-27 14:32:00,38.0,35.0,29.62,East,84,3.0,6.0,89,0.04,,,0.40,,2013-02-27 19:32:00,
2013-02-27 14:42:00,38.0,35.0,29.62,East,84,3.0,6.0,89,0.04,,,0.40,,2013-02-27 19:42:00,
2013-02-27 14:52:00,38.0,35.0,29.62,North,356,1.0,7.0,90,0.02,,,0.40,,2013-02-27 19:52:00,
2013-02-27 15:02:00,38.0,35.0,29.62,ENE,63,1.0,6.0,90,0.02,,,0.41,,2013-02-27 20:02:00,
2013-02-27 15:12:00,38.0,35.0,29.62,ENE,63,1.0,6.0,90,0.02,,,0.41,,2013-02-27 20:12:00,
2013-02-27 15:22:00,37.0,34.0,29.62,East,82,3.0,7.0,90,0.03,,,0.42,,2013-02-27 20:22:00,
2013-02-27 15:32:00,37.0,34.0,29.61,NNW,340,1.0,5.0,90,0.02,,,0.42,,2013-02-27 20:32:00,
2013-02-27 15:42:00,37.0,34.0,29.61,NNW,340,1.0,5.0,90,0.02,,,0.42,,2013-02-27 20:42:00,
2013-02-27 15:52:00,37.0,35.0,29.61,NW,308,1.0,7.0,91,0.03,,,0.43,,2013-02-27 20:52:00,
2013-02-27 16:02:00,37.0,35.0,29.61,East,80,3.0,11.0,91,0.03,,,0.44,,2013-02-27 21:02:00,
2013-02-27 16:11:00,37.0,35.0,29.61,East,80,3.0,11.0,91,0.03,,,0.44,,2013-02-27 21:11:00,
2013-02-27 16:22:00,37.0,35.0,29.61,NNW,347,0.0,7.0,91,0.02,,,0.44,,2013-02-27 21:22:00,
2013-02-27 16:32:00,36.0,34.0,29.61,WNW,285,1.0,7.0,91,0.02,,,0.44,,2013-02-27 21:32:00,
2013-02-27 16:42:00,36.0,34.0,29.61,WNW,285,1.0,7.0,91,0.02,,,0.44,,2013-02-27 21:42:00,
2013-02-27 16:52:00,36.0,34.0,29.61,WNW,302,1.0,6.0,91,0.01,,,0.44,,2013-02-27 21:52:00,
2013-02-27 17:02:00,36.0,34.0,29.62,SE,139,2.0,5.0,91,0.01,,,0.45,,2013-02-27 22:02:00,
2013-02-27 17:11:00,36.0,34.0,29.62,SE,139,2.0,5.0,91,0.01,,,0.45,,2013-02-27 22:11:00,
2013-02-27 17:21:00,36.0,34.0,29.62,SE,136,0.0,2.0,91,0.02,,,0.46,,2013-02-27 22:21:00,
2013-02-27 17:32:00,36.0,34.0,29.63,East,93,0.0,0.0,92,0.04,,,0.48,,2013-02-27 22:32:00,
2013-02-27 17:42:00,36.0,34.0,29.63,East,93,0.0,0.0,92,0.04,,,0.48,,2013-02-27 22:42:00,
2013-02-27 17:52:00,35.0,33.0,29.63,WNW,300,0.0,1.0,92,0.07,,,0.51,,2013-02-27 22:52:00,
2013-02-27 18:01:00,34.0,32.0,29.63,WNW,295,0.0,2.0,92,0.09,,,0.54,,2013-02-27 23:01:00,
2013-02-27 18:11:00,34.0,32.0,29.63,WNW,295,0.0,2.0,92,0.09,,,0.54,,2013-02-27 23:11:00,
2013-02-27 18:22:00,34.0,32.0,29.63,WNW,295,0.0,0.0,93,0.09,,,0.55,,2013-02-27 23:22:00,
2013-02-27 18:32:00,34.0,32.0,29.63,WNW,295,0.0,1.0,93,0.08,,,0.56,,2013-02-27 23:32:00,
2013-02-27 18:42:00,34.0,32.0,29.63,WNW,295,0.0,1.0,93,0.08,,,0.56,,2013-02-27 23:42:00,
2013-02-27 18:53:00,34.0,32.0,29.63,West,275,0.0,0.0,94,0.06,,,0.56,,2013-02-27 23:53:00,
2013-02-27 19:02:00,34.0,32.0,29.63,WNW,282,0.0,2.0,94,0.03,,,0.56,,2013-02-28 00:02:00,
2013-02-27 19:12:00,34.0,32.0,29.63,WNW,282,0.0,2.0,94,0.03,,,0.56,,2013-02-28 00:12:00,
2013-02-27 19:21:00,34.0,32.0,29.63,West,281,0.0,0.0,94,0.02,,,0.56,,2013-02-28 00:21:00,
2013-02-27 19:32:00,34.0,32.0,29.62,West,281,0.0,1.0,94,0.01,,,0.56,,2013-02-28 00:32:00,
2013-02-27 19:42:00,34.0,32.0,29.62,West,281,0.0,1.0,94,0.01,,,0.56,,2013-02-28 00:42:00,
2013-02-27 19:52:00,34.0,33.0,29.63,West,281,0.0,1.0,95,0.00,,,0.56,,2013-02-28 00:52:00,
2013-02-27 20:01:00,34.0,33.0,29.62,West,281,0.0,0.0,95,0.00,,,0.56,,2013-02-28 01:01:00,
2013-02-27 20:11:00,34.0,33.0,29.62,West,281,0.0,0.0,95,0.00,,,0.56,,2013-02-28 01:11:00,
2013-02-27 20:22:00,34.0,32.0,29.63,North,8,0.0,1.0,94,0.00,,,0.56,,2013-02-28 01:22:00,
2013-02-27 20:32:00,34.0,32.0,29.62,East,98,0.0,0.0,94,0.01,,,0.57,,2013-02-28 01:32:00,
2013-02-27 20:42:00,34.0,32.0,29.62,East,98,0.0,0.0,94,0.01,,,0.57,,2013-02-28 01:42:00,
2013-02-27 20:52:00,34.0,32.0,29.62,ESE,114,0.0,3.0,94,0.01,,,0.57,,2013-02-28 01:52:00,
2013-02-27 21:01:00,34.0,32.0,29.62,ESE,104,0.0,1.0,94,0.01,,,0.57,,2013-02-28 02:01:00,
2013-02-27 21:11:00,34.0,32.0,29.62,ESE,104,0.0,1.0,94,0.01,,,0.57,,2013-02-28 02:11:00,
2013-02-27 21:22:00,34.0,32.0,29.63,SE,135,0.0,2.0,94,0.01,,,0.57,,2013-02-28 02:22:00,
2013-02-27 21:32:00,34.0,32.0,29.63,ESE,117,0.0,2.0,94,0.01,,,0.59,,2013-02-28 02:32:00,
2013-02-27 21:42:00,34.0,32.0,29.63,ESE,117,0.0,2.0,94,0.01,,,0.59,,2013-02-28 02:42:00,
2013-02-27 21:52:00,34.0,32.0,29.63,ESE,117,0.0,2.0,94,0.01,,,0.59,,2013-02-28 02:52:00,
2013-02-27 22:02:00,33.0,31.0,29.63,SE,125,0.0,3.0,94,0.03,,,0.61,,2013-02-28 03:02:00,
2013-02-27 22:11:00,33.0,31.0,29.63,SE,125,0.0,3.0,94,0.03,,,0.61,,2013-02-28 03:11:00,
2013-02-27 22:21:00,33.0,31.0,29.63,SSW,193,0.0,0.0,94,0.04,,,0.62,,2013-02-28 03:21:00,
2013-02-27 22:32:00,32.0,30.0,29.63,SE,145,0.0,0.0,94,0.03,,,0.62,,2013-02-28 03:32:00,
2013-02-27 22:42:00,32.0,30.0,29.63,SE,145,0.0,0.0,94,0.03,,,0.62,,2013-02-28 03:42:00,
2013-02-27 22:52:00,32.0,30.0,29.63,SE,130,0.0,2.0,94,0.02,,,0.62,,2013-02-28 03:52:00,
2013-02-27 23:02:00,32.0,31.0,29.64,WSW,250,0.0,1.0,95,0.01,,,0.62,,2013-02-28 04:02:00,
2013-02-27 23:11:00,32.0,31.0,29.64,WSW,250,0.0,1.0,95,0.01,,,0.62,,2013-02-28 04:11:00,
2013-02-27 23:22:00,32.0,31.0,29.64,West,273,0.0,1.0,95,0.00,,,0.62,,2013-02-28 04:22:00,
2013-02-27 23:32:00,32.0,31.0,29.64,West,273,0.0,1.0,95,0.00,,,0.62,,2013-02-28 04:32:00,
2013-02-27 23:42:00,32.0,31.0,29.64,West,273,0.0,1.0,95,0.00,,,0.62,,2013-02-28 04:42:00,
2013-02-27 23:52:00,32.0,31.0,29.63,SSW,200,0.0,0.0,95,0.00,,,0.62,,2013-02-28 04:52:00,